| time (UTC) | temp F | wind direction | speed knots | gust knots | rain 1hr in | rain 24hr in | rain mn in | humidity % | barometer mb |
| 20260510213008 | 57 | 18 | 0.9 | 5.2 | 0.00 | 0.00 | 0.00 | 38 | 1018.6 |
| 20260510211506 | 57 | 134 | 1.7 | 11.3 | 0.00 | 0.00 | 0.00 | 38 | 1018.6 |
| 20260510204512 | 58 | 9 | 1.7 | 7.0 | 0.00 | 0.00 | 0.00 | 37 | 1018.4 |
| 20260510203011 | 58 | 307 | 2.6 | 7.0 | 0.00 | 0.00 | 0.00 | 37 | 1018.4 |
| 20260510201509 | 58 | 297 | 2.6 | 7.0 | 0.00 | 0.00 | 0.00 | 38 | 1018.4 |
| 20260510200008 | 58 | 281 | 1.7 | 7.8 | 0.00 | 0.00 | 0.00 | 40 | 1018.3 |
| 20260510194504 | 57 | 294 | 2.6 | 8.7 | 0.00 | 0.00 | 0.00 | 42 | 1018.3 |
| 20260510193104 | 55 | 286 | 0.9 | 7.8 | 0.00 | 0.00 | 0.00 | 41 | 1018.4 |
| 20260510191523 | 56 | 287 | 2.6 | 7.8 | 0.00 | 0.00 | 0.00 | 42 | 1018.5 |
| 20260510190110 | 55 | 332 | 0.9 | 5.2 | 0.00 | 0.00 | 0.00 | 43 | 1018.4 |
| 20260510184605 | 55 | 39 | 2.6 | 12.2 | 0.00 | 0.00 | 0.00 | 39 | 1018.4 |
| 20260510183012 | 55 | 296 | 3.5 | 7.8 | 0.00 | 0.00 | 0.00 | 43 | 1018.6 |
| 20260510181508 | 55 | 319 | 3.5 | 9.6 | 0.00 | 0.00 | 0.00 | 40 | 1018.2 |
| 20260510180006 | 55 | 328 | 1.7 | 8.7 | 0.00 | 0.00 | 0.00 | 44 | 1018.4 |
| 20260510174608 | 54 | 337 | 1.7 | 8.7 | 0.00 | 0.00 | 0.00 | 42 | 1018.4 |
| 20260510173012 | 54 | 15 | 3.5 | 7.8 | 0.00 | 0.00 | 0.00 | 43 | 1018.5 |
| 20260510171512 | 53 | 339 | 1.7 | 9.6 | 0.00 | 0.00 | 0.00 | 47 | 1018.3 |
| 20260510170005 | 53 | 285 | 2.6 | 7.8 | 0.00 | 0.00 | 0.00 | 46 | 1018.2 |
| 20260510164517 | 53 | 5 | 3.5 | 9.6 | 0.00 | 0.00 | 0.00 | 46 | 1018.3 |
| 20260510163007 | 52 | 318 | 1.7 | 10.4 | 0.00 | 0.00 | 0.00 | 45 | 1018.1 |
| 20260510161603 | 51 | 319 | 3.5 | 8.7 | 0.00 | 0.00 | 0.00 | 50 | 1018.0 |
| 20260510160014 | 51 | 294 | 4.3 | 8.7 | 0.00 | 0.00 | 0.00 | 49 | 1018.0 |
| 20260510154507 | 50 | 303 | 1.7 | 7.8 | 0.00 | 0.00 | 0.00 | 47 | 1018.0 |
| 20260510153103 | 50 | 345 | 3.5 | 10.4 | 0.00 | 0.00 | 0.00 | 50 | 1017.8 |
| 20260510151509 | 50 | 282 | 2.6 | 8.7 | 0.00 | 0.00 | 0.00 | 50 | 1017.6 |
| 20260510150006 | 50 | 309 | 1.7 | 7.0 | 0.00 | 0.00 | 0.00 | 49 | 1017.3 |
| 20260510144526 | 49 | 28 | 1.7 | 7.8 | 0.00 | 0.00 | 0.00 | 50 | 1017.1 |
| 20260510143011 | 49 | 49 | 1.7 | 7.8 | 0.00 | 0.00 | 0.00 | 55 | 1017.2 |
| 20260510141604 | 48 | 313 | 2.6 | 8.7 | 0.00 | 0.00 | 0.00 | 53 | 1017.1 |
| 20260510140014 | 47 | 345 | 2.6 | 7.8 | 0.00 | 0.00 | 0.00 | 55 | 1016.9 |
| 20260510134508 | 46 | 299 | 3.5 | 9.6 | 0.00 | 0.00 | 0.00 | 61 | 1016.9 |
| 20260510133005 | 45 | 313 | 4.3 | 8.7 | 0.00 | 0.00 | 0.00 | 62 | 1017.0 |
| 20260510131604 | 45 | 328 | 1.7 | 7.8 | 0.00 | 0.00 | 0.00 | 60 | 1016.9 |
| 20260510130014 | 45 | 330 | 2.6 | 5.2 | 0.00 | 0.00 | 0.00 | 64 | 1016.7 |
| 20260510124509 | 45 | 277 | 3.5 | 7.8 | 0.00 | 0.00 | 0.00 | 65 | 1016.7 |
| 20260510123013 | 45 | 299 | 0.9 | 5.2 | 0.00 | 0.00 | 0.00 | 69 | 1016.5 |
| 20260510121505 | 44 | 350 | 0.9 | 3.5 | 0.00 | 0.00 | 0.00 | 71 | 1016.4 |
| 20260510120003 | 44 | 319 | 0.9 | 6.1 | 0.00 | 0.00 | 0.00 | 70 | 1016.2 |
| 20260510114606 | 43 | 282 | 1.7 | 4.3 | 0.00 | 0.00 | 0.00 | 70 | 1015.9 |
| 20260510113018 | 42 | 278 | 0.9 | 3.5 | 0.00 | 0.00 | 0.00 | 72 | 1015.7 |
| 20260510111508 | 42 | 271 | 0.9 | 2.6 | 0.00 | 0.00 | 0.00 | 71 | 1015.5 |
| 20260510110015 | 43 | 290 | 0.0 | 1.7 | 0.00 | 0.00 | 0.00 | 68 | 1015.2 |
| 20260510104606 | 44 | 269 | 0.9 | 1.7 | 0.00 | 0.00 | 0.00 | 67 | 1015.0 |
| 20260510103103 | 44 | 271 | 0.0 | 1.7 | 0.00 | 0.00 | 0.00 | 64 | 1014.9 |
| 20260510101512 | 45 | 278 | 0.0 | 1.7 | 0.00 | 0.00 | 0.00 | 65 | 1014.6 |
| 20260510100010 | 45 | 295 | 0.0 | 1.7 | 0.00 | 0.00 | 0.00 | 62 | 1014.5 |
| 20260510094525 | 46 | 282 | 0.0 | 2.6 | 0.00 | 0.08 | 0.00 | 62 | 1014.5 |
| 20260510093010 | 46 | 295 | 0.0 | 2.6 | 0.00 | 0.08 | 0.00 | 62 | 1014.2 |
| 20260510091604 | 46 | 282 | 0.9 | 2.6 | 0.00 | 0.08 | 0.00 | 63 | 1014.1 |
| 20260510090013 | 46 | 301 | 0.0 | 3.5 | 0.00 | 0.08 | 0.00 | 60 | 1013.9 |
| 20260510084508 | 45 | 300 | 0.9 | 2.6 | 0.00 | 0.09 | 0.00 | 60 | 1014.0 |
| 20260510083006 | 45 | 311 | 1.7 | 5.2 | 0.00 | 0.09 | 0.00 | 60 | 1013.8 |
| 20260510081606 | 45 | 334 | 0.9 | 3.5 | 0.00 | 0.09 | 0.00 | 60 | 1013.5 |
| 20260510080014 | 44 | 345 | 0.9 | 2.6 | 0.00 | 0.09 | 0.00 | 59 | 1013.3 |
| 20260510074508 | 44 | 278 | 0.9 | 3.5 | 0.00 | 0.09 | 0.00 | 62 | 1013.2 |
| 20260510073007 | 43 | 281 | 0.0 | 1.7 | 0.00 | 0.09 | 0.00 | 63 | 1013.1 |
| 20260510070017 | 40 | 275 | 0.9 | 2.6 | 0.00 | 0.09 | 0.00 | 73 | 1012.9 |
| 20260510064506 | 39 | 286 | 0.0 | 1.7 | 0.00 | 0.09 | 0.00 | 74 | 1012.8 |
| 20260510063006 | 38 | 297 | 0.0 | 0.9 | 0.00 | 0.09 | 0.00 | 77 | 1012.8 |
| 20260510061505 | 38 | 315 | 0.0 | 0.0 | 0.00 | 0.09 | 0.00 | 75 | 1012.7 |
| 20260510060013 | 38 | 315 | 0.0 | 0.0 | 0.00 | 0.09 | 0.00 | 76 | 1012.9 |
| 20260510054506 | 38 | 315 | 0.0 | 0.9 | 0.00 | 0.09 | 0.00 | 73 | 1012.8 |
| 20260510053106 | 39 | 315 | 0.0 | 0.0 | 0.00 | 0.09 | 0.00 | 68 | 1012.6 |
| 20260510051510 | 40 | 315 | 0.0 | 0.9 | 0.00 | 0.09 | 0.00 | 67 | 1012.5 |
| 20260510050009 | 41 | 315 | 0.0 | 0.0 | 0.00 | 0.09 | 0.00 | 64 | 1012.3 |
| 20260510044505 | 42 | 315 | 0.0 | 0.0 | 0.00 | 0.09 | 0.09 | 62 | 1012.2 |
| 20260510043012 | 44 | 315 | 0.0 | 0.0 | 0.00 | 0.09 | 0.09 | 54 | 1012.2 |
| 20260510041509 | 47 | 315 | 0.0 | 0.9 | 0.00 | 0.09 | 0.09 | 50 | 1012.3 |
| 20260510040008 | 49 | 315 | 0.0 | 0.9 | 0.00 | 0.09 | 0.09 | 48 | 1012.1 |
| 20260510034505 | 49 | 316 | 0.0 | 0.9 | 0.00 | 0.09 | 0.09 | 47 | 1012.0 |
| 20260510033004 | 49 | 341 | 0.0 | 0.9 | 0.00 | 0.09 | 0.09 | 46 | 1012.0 |
| 20260510031604 | 50 | 350 | 0.0 | 2.6 | 0.00 | 0.09 | 0.09 | 45 | 1011.9 |
| 20260510030011 | 50 | 345 | 0.0 | 2.6 | 0.00 | 0.09 | 0.09 | 44 | 1011.7 |
| 20260510024509 | 51 | 330 | 0.9 | 7.8 | 0.00 | 0.09 | 0.09 | 43 | 1011.5 |
| 20260510023008 | 51 | 360 | 1.7 | 5.2 | 0.00 | 0.09 | 0.09 | 43 | 1011.2 |
| 20260510021519 | 52 | 1 | 0.9 | 4.3 | 0.00 | 0.09 | 0.09 | 43 | 1010.9 |
| 20260510020003 | 52 | 310 | 0.9 | 3.5 | 0.00 | 0.09 | 0.09 | 41 | 1010.5 |
| 20260510014603 | 52 | 359 | 1.7 | 5.2 | 0.00 | 0.09 | 0.09 | 40 | 1010.2 |
| 20260510013021 | 53 | 288 | 0.9 | 4.3 | 0.00 | 0.09 | 0.09 | 40 | 1009.8 |
| 20260510011510 | 53 | 305 | 1.7 | 7.8 | 0.00 | 0.09 | 0.09 | 40 | 1009.4 |
| 20260510010004 | 54 | 337 | 0.9 | 5.2 | 0.00 | 0.09 | 0.09 | 39 | 1009.2 |
| 20260510004512 | 54 | 299 | 1.7 | 5.2 | 0.00 | 0.09 | 0.09 | 39 | 1008.9 |
| 20260510003010 | 55 | 21 | 2.6 | 9.6 | 0.00 | 0.09 | 0.09 | 36 | 1008.7 |
| 20260510001511 | 56 | 311 | 3.5 | 12.2 | 0.00 | 0.09 | 0.09 | 36 | 1008.5 |
| 20260510000005 | 56 | 305 | 3.5 | 11.3 | 0.00 | 0.09 | 0.09 | 37 | 1008.3 |
| 20260509234503 | 56 | 299 | 4.3 | 8.7 | 0.00 | 0.09 | 0.09 | 37 | 1008.0 |
| 20260509233004 | 58 | 307 | 6.1 | 11.3 | 0.00 | 0.09 | 0.09 | 34 | 1008.0 |
| 20260509231507 | 59 | 345 | 1.7 | 7.0 | 0.00 | 0.09 | 0.09 | 33 | 1007.8 |
| 20260509230009 | 57 | 314 | 3.5 | 13.0 | 0.00 | 0.09 | 0.09 | 34 | 1007.6 |
| 20260509224508 | 57 | 285 | 2.6 | 9.6 | 0.00 | 0.09 | 0.09 | 34 | 1007.5 |
| 20260509223013 | 57 | 24 | 2.6 | 12.2 | 0.00 | 0.09 | 0.09 | 35 | 1007.2 |
| 20260509221507 | 59 | 3 | 3.5 | 11.3 | 0.00 | 0.09 | 0.09 | 31 | 1007.3 |
| 20260509220008 | 60 | 345 | 1.7 | 7.8 | 0.00 | 0.09 | 0.09 | 31 | 1007.0 |
| 20260509214511 | 59 | 305 | 4.3 | 12.2 | 0.00 | 0.09 | 0.09 | 34 | 1006.9 |